Time;durP1;ratioP1;P1;durP2;ratioP2;P2;SDS_P1;SDS_P2;PMS_P1;PMS_P2;Temp;Humidity;BMP_temperature;BMP_pressure;BME280_temperature;BME280_humidity;BME280_pressure;Samples;Min_cycle;Max_cycle;Signal;HPM_P1;HPM_P2
2022/08/19 00:01:29;;;;;;;7.18;5.53;;;18.50;99.90;;;;;;5117884;28;20073;-73
2022/08/19 00:03:59;;;;;;;10.88;6.20;;;18.50;99.90;;;;;;5114763;28;20018;-73
2022/08/19 00:06:27;;;;;;;11.47;5.80;;;18.50;99.90;;;;;;5103222;28;20020;-73
2022/08/19 00:08:53;;;;;;;9.48;5.18;;;18.50;99.90;;;;;;5105891;28;20037;-75
2022/08/19 00:11:20;;;;;;;12.80;6.10;;;18.40;99.90;;;;;;5119431;28;20531;-71
2022/08/19 00:13:49;;;;;;;8.30;5.75;;;18.40;99.90;;;;;;5116871;28;20026;-73
2022/08/19 00:16:20;;;;;;;9.75;5.90;;;18.40;99.90;;;;;;5117883;28;20107;-73
2022/08/19 00:18:48;;;;;;;9.18;6.53;;;18.30;99.90;;;;;;5117656;28;20027;-72
2022/08/19 00:21:15;;;;;;;7.32;6.22;;;18.30;99.90;;;;;;5117517;28;20038;-72
2022/08/19 00:23:42;;;;;;;7.03;5.80;;;18.20;99.90;;;;;;5117468;28;20027;-72
2022/08/19 00:26:10;;;;;;;10.05;6.72;;;18.20;99.90;;;;;;5112365;28;20404;-72
2022/08/19 00:28:37;;;;;;;12.68;6.03;;;18.20;99.90;;;;;;5118792;28;20023;-72
2022/08/19 00:31:04;;;;;;;8.75;5.50;;;18.20;99.90;;;;;;5118718;27;20016;-72
2022/08/19 00:33:33;;;;;;;15.13;6.97;;;18.10;99.90;;;;;;5111908;28;20028;-71
2022/08/19 00:36:01;;;;;;;13.93;7.22;;;18.10;99.90;;;;;;5111118;28;20364;-72
2022/08/19 00:38:27;;;;;;;11.63;6.72;;;18.00;99.90;;;;;;5109666;28;20015;-72
2022/08/19 00:40:53;;;;;;;12.88;6.57;;;18.00;99.90;;;;;;5118197;28;20020;-72
2022/08/19 00:43:22;;;;;;;14.27;8.27;;;17.90;99.90;;;;;;5118150;28;20126;-72
2022/08/19 00:45:49;;;;;;;9.07;7.63;;;17.90;99.90;;;;;;5116830;28;20028;-72
2022/08/19 00:48:16;;;;;;;13.80;6.53;;;17.90;99.90;;;;;;5118628;28;20007;-72
2022/08/19 00:50:43;;;;;;;11.70;6.45;;;17.90;99.90;;;;;;5117930;28;20069;-72
2022/08/19 00:53:12;;;;;;;19.13;6.78;;;17.80;99.90;;;;;;5118536;28;20022;-72
2022/08/19 00:55:38;;;;;;;12.85;7.30;;;17.80;99.90;;;;;;5115487;28;20051;-72
2022/08/19 00:58:09;;;;;;;10.73;7.43;;;17.80;99.90;;;;;;5107037;28;20548;-72
2022/08/19 01:00:37;;;;;;;17.25;7.68;;;17.80;99.90;;;;;;5113744;28;20593;-74
2022/08/19 01:03:08;;;;;;;8.43;6.22;;;17.70;99.90;;;;;;5118006;28;20027;-72
2022/08/19 01:05:35;;;;;;;11.02;7.43;;;17.70;99.90;;;;;;5109504;28;20114;-73
2022/08/19 01:08:04;;;;;;;10.85;7.13;;;17.70;99.90;;;;;;5116612;28;20102;-72
2022/08/19 01:10:39;;;;;;;16.60;7.47;;;17.70;99.90;;;;;;5118065;28;20044;-72
2022/08/19 01:13:05;;;;;;;12.60;8.55;;;17.60;99.90;;;;;;5115393;28;20034;-72
2022/08/19 01:15:45;;;;;;;14.70;8.00;;;17.60;99.90;;;;;;5115429;28;20434;-74
2022/08/19 01:18:15;;;;;;;16.27;8.25;;;17.60;99.90;;;;;;5116337;28;20020;-74
2022/08/19 01:20:42;;;;;;;11.87;7.70;;;17.60;99.90;;;;;;5117961;28;20028;-74
2022/08/19 01:23:08;;;;;;;15.82;8.48;;;17.60;99.90;;;;;;5116622;28;20075;-74
2022/08/19 01:25:59;;;;;;;13.68;7.55;;;17.60;99.90;;;;;;5116288;28;20031;-73
2022/08/19 01:28:27;;;;;;;12.55;7.25;;;17.60;99.90;;;;;;5116303;28;20081;-75
2022/08/19 01:30:54;;;;;;;12.90;7.97;;;17.70;99.90;;;;;;5109037;28;20044;-74
2022/08/19 01:33:23;;;;;;;10.90;7.72;;;17.70;99.90;;;;;;5113867;28;20023;-75
2022/08/19 01:35:52;;;;;;;17.55;8.27;;;17.60;99.90;;;;;;5117495;28;20023;-74
2022/08/19 01:38:26;;;;;;;15.68;7.75;;;17.60;99.90;;;;;;5117493;28;20440;-75
2022/08/19 01:40:52;;;;;;;14.00;7.60;;;17.60;99.90;;;;;;5110928;28;20019;-73
2022/08/19 01:43:19;;;;;;;15.10;7.45;;;17.50;99.90;;;;;;5117501;28;20023;-74
2022/08/19 01:45:46;;;;;;;18.20;7.90;;;17.50;99.90;;;;;;5117516;28;20023;-74
2022/08/19 01:48:13;;;;;;;10.60;7.88;;;17.50;99.90;;;;;;5116354;28;20080;-74
2022/08/19 01:50:39;;;;;;;14.13;8.82;;;17.50;99.90;;;;;;5115774;28;20068;-74
2022/08/19 01:53:08;;;;;;;16.08;8.68;;;17.40;99.90;;;;;;5118006;28;20035;-75
2022/08/19 01:55:38;;;;;;;14.50;7.90;;;17.50;99.90;;;;;;5115999;28;20028;-74
2022/08/19 01:58:05;;;;;;;10.15;7.68;;;17.40;99.90;;;;;;5116495;28;20062;-74
2022/08/19 02:00:32;;;;;;;14.45;7.88;;;17.40;99.90;;;;;;5117253;28;20840;-74
2022/08/19 02:02:58;;;;;;;16.45;7.78;;;17.40;99.90;;;;;;5114410;28;20023;-74
2022/08/19 02:05:24;;;;;;;14.93;8.15;;;17.40;99.90;;;;;;5115946;28;20024;-74
2022/08/19 02:07:50;;;;;;;12.40;7.65;;;17.40;99.90;;;;;;5116148;28;20062;-74
2022/08/19 02:10:20;;;;;;;13.20;7.53;;;17.40;99.90;;;;;;5115994;28;20023;-75
2022/08/19 02:12:47;;;;;;;20.33;8.48;;;17.40;99.90;;;;;;5118145;28;20035;-73
2022/08/19 02:15:13;;;;;;;13.23;7.60;;;17.50;99.90;;;;;;5118792;28;20479;-74
2022/08/19 02:17:40;;;;;;;16.63;8.38;;;17.50;99.90;;;;;;5116818;28;20024;-75
2022/08/19 02:20:07;;;;;;;15.75;8.40;;;17.50;99.90;;;;;;5116888;28;20442;-74
2022/08/19 02:22:33;;;;;;;14.07;8.30;;;17.50;99.90;;;;;;5120049;28;20033;-74
2022/08/19 02:24:59;;;;;;;10.38;7.07;;;17.50;99.90;;;;;;5119776;28;20020;-74
2022/08/19 02:27:25;;;;;;;18.55;7.95;;;17.50;99.90;;;;;;5118840;28;20122;-74
2022/08/19 02:29:52;;;;;;;15.10;7.82;;;17.60;99.90;;;;;;5121379;28;20464;-74
2022/08/19 02:32:19;;;;;;;15.35;7.53;;;17.60;99.90;;;;;;5109806;28;20015;-74
2022/08/19 02:34:46;;;;;;;9.23;6.70;;;17.60;99.90;;;;;;5120964;28;20058;-73
2022/08/19 02:39:58;;;;;;;13.50;7.68;;;17.60;99.90;;;;;;5121082;28;20531;-74
2022/08/19 02:42:24;;;;;;;13.55;8.15;;;17.60;99.90;;;;;;5120935;28;20034;-74
2022/08/19 02:44:50;;;;;;;12.50;7.30;;;17.60;99.90;;;;;;5111667;28;20024;-74
2022/08/19 02:47:16;;;;;;;14.40;6.95;;;17.60;99.90;;;;;;5117005;28;20023;-74
2022/08/19 02:49:42;;;;;;;12.15;7.00;;;17.60;99.90;;;;;;5114320;28;20377;-74
2022/08/19 02:52:08;;;;;;;14.48;7.00;;;17.50;99.90;;;;;;5121013;27;20038;-74
2022/08/19 02:54:34;;;;;;;9.50;7.45;;;17.50;99.90;;;;;;5120681;28;20019;-74
2022/08/19 02:57:00;;;;;;;8.70;6.68;;;17.50;99.90;;;;;;5120600;28;20026;-74
2022/08/19 02:59:26;;;;;;;16.35;8.82;;;17.50;99.90;;;;;;5118876;28;20483;-74
2022/08/19 03:01:52;;;;;;;18.02;7.93;;;17.50;99.90;;;;;;5119316;28;20062;-74
2022/08/19 03:04:19;;;;;;;12.90;7.57;;;17.50;99.90;;;;;;5120193;28;20020;-74
2022/08/19 03:06:47;;;;;;;14.27;8.30;;;17.60;99.90;;;;;;5120335;28;20069;-74
2022/08/19 03:09:13;;;;;;;8.63;7.10;;;17.60;99.90;;;;;;5114661;28;20015;-74
2022/08/19 03:11:40;;;;;;;13.88;7.70;;;17.60;99.90;;;;;;5120371;28;20102;-74
2022/08/19 03:14:07;;;;;;;13.45;6.70;;;17.70;99.90;;;;;;5120109;28;20016;-74
2022/08/19 03:16:41;;;;;;;12.35;6.80;;;17.70;99.90;;;;;;5120307;28;20040;-75
2022/08/19 03:19:07;;;;;;;18.70;7.85;;;17.70;99.90;;;;;;5128165;27;20034;-74
2022/08/19 03:21:34;;;;;;;12.75;6.85;;;17.70;99.90;;;;;;5117132;28;20024;-75
2022/08/19 03:24:03;;;;;;;14.73;7.65;;;17.70;99.90;;;;;;5118117;28;20102;-72
2022/08/19 03:26:29;;;;;;;14.40;8.25;;;17.80;99.90;;;;;;5119662;28;20127;-74
2022/08/19 03:28:55;;;;;;;12.82;8.20;;;17.70;99.90;;;;;;5120332;28;20547;-74
2022/08/19 03:31:22;;;;;;;13.18;8.32;;;17.80;99.90;;;;;;5118602;28;20024;-74
2022/08/19 03:33:50;;;;;;;15.27;6.88;;;17.80;99.90;;;;;;5119951;28;20430;-74
2022/08/19 03:36:25;;;;;;;12.48;6.15;;;17.80;99.90;;;;;;5119929;28;20031;-75
2022/08/19 03:38:55;;;;;;;12.43;7.25;;;17.80;99.90;;;;;;5118425;28;20020;-74
2022/08/19 03:41:25;;;;;;;11.45;7.15;;;17.80;99.90;;;;;;5119606;27;20396;-74
2022/08/19 03:43:53;;;;;;;14.10;7.70;;;17.80;99.90;;;;;;5119487;28;20011;-73
2022/08/19 03:46:27;;;;;;;12.75;6.20;;;17.80;99.90;;;;;;5119755;28;20030;-74
2022/08/19 03:48:56;;;;;;;13.85;6.68;;;17.80;99.90;;;;;;5119573;28;20024;-73
2022/08/19 03:51:27;;;;;;;15.05;6.38;;;17.80;99.90;;;;;;5119282;28;20020;-74
2022/08/19 03:53:54;;;;;;;10.10;6.55;;;17.80;99.90;;;;;;5118215;28;20016;-74
2022/08/19 03:56:21;;;;;;;16.90;6.55;;;17.80;99.90;;;;;;5119591;28;20023;-73
2022/08/19 03:58:48;;;;;;;11.02;6.18;;;17.80;99.90;;;;;;5117809;28;20034;-73
2022/08/19 04:01:17;;;;;;;10.90;6.30;;;17.80;99.90;;;;;;5118596;28;20024;-73
2022/08/19 04:03:46;;;;;;;21.35;6.80;;;17.80;99.90;;;;;;5119052;28;20024;-73
2022/08/19 04:06:20;;;;;;;12.65;7.05;;;17.80;99.90;;;;;;5119343;27;20016;-74
2022/08/19 04:08:47;;;;;;;12.20;6.15;;;17.90;99.90;;;;;;5117526;28;20024;-73
2022/08/19 04:11:17;;;;;;;12.43;6.45;;;17.90;99.90;;;;;;5119277;28;20007;-73
2022/08/19 04:13:44;;;;;;;14.23;6.40;;;17.90;99.90;;;;;;5098363;28;20035;-73
2022/08/19 04:16:10;;;;;;;16.25;8.05;;;17.90;99.90;;;;;;5119071;28;20014;-73
2022/08/19 04:18:38;;;;;;;20.20;6.75;;;17.90;99.90;;;;;;5117828;28;20035;-72
2022/08/19 04:21:05;;;;;;;10.30;5.72;;;17.90;99.90;;;;;;5118572;28;20020;-73
2022/08/19 04:23:32;;;;;;;7.97;6.15;;;17.90;99.90;;;;;;5117529;28;20112;-73
2022/08/19 04:25:58;;;;;;;10.27;6.00;;;17.90;99.90;;;;;;5113706;28;20036;-73
2022/08/19 04:28:25;;;;;;;12.82;6.85;;;17.90;99.90;;;;;;5117566;28;20487;-72
2022/08/19 04:30:53;;;;;;;9.65;6.30;;;17.80;99.90;;;;;;5117789;28;20024;-73
2022/08/19 04:33:22;;;;;;;18.75;6.85;;;17.80;99.90;;;;;;5116456;28;20034;-72
2022/08/19 04:35:50;;;;;;;9.90;5.38;;;17.80;99.90;;;;;;5102032;28;20027;-73
2022/08/19 04:38:20;;;;;;;16.08;6.50;;;17.80;99.90;;;;;;5118546;28;20031;-73
2022/08/19 04:43:35;;;;;;;11.50;6.47;;;17.80;99.90;;;;;;5118483;28;20088;-73
2022/08/19 04:46:10;;;;;;;13.57;5.97;;;17.80;99.90;;;;;;5116854;28;20016;-72
2022/08/19 04:48:38;;;;;;;13.18;5.55;;;17.70;99.90;;;;;;5117190;28;20031;-73
2022/08/19 04:51:12;;;;;;;8.57;5.97;;;17.80;99.90;;;;;;5117935;28;20016;-73
2022/08/19 04:53:39;;;;;;;12.35;6.80;;;17.70;99.90;;;;;;5116916;28;20395;-73
2022/08/19 04:56:12;;;;;;;12.88;6.00;;;17.80;99.90;;;;;;5116883;28;20570;-73
2022/08/19 04:58:41;;;;;;;8.30;5.78;;;17.80;99.90;;;;;;5118172;28;20020;-72
2022/08/19 05:01:09;;;;;;;13.75;5.80;;;17.80;99.90;;;;;;5117697;28;20016;-73
2022/08/19 05:03:36;;;;;;;18.25;6.93;;;17.80;99.90;;;;;;5112901;28;20028;-72
2022/08/19 05:06:10;;;;;;;12.98;6.28;;;17.80;99.90;;;;;;5117857;28;20099;-73
2022/08/19 05:08:37;;;;;;;12.35;5.63;;;17.90;99.90;;;;;;5117777;28;20024;-73
2022/08/19 05:11:10;;;;;;;17.80;6.03;;;17.90;99.90;;;;;;5116743;28;20047;-73
2022/08/19 05:13:37;;;;;;;14.25;6.68;;;17.90;99.90;;;;;;5117954;28;20030;-72
2022/08/19 05:16:04;;;;;;;10.30;6.18;;;17.90;99.90;;;;;;5116753;28;20027;-73
2022/08/19 05:24:05;;;;;;;15.85;6.80;;;17.90;99.90;;;;;;5107636;28;20399;-73
2022/08/19 05:26:31;;;;;;;9.75;6.15;;;17.90;99.90;;;;;;5117314;28;20040;-73
2022/08/19 05:28:56;;;;;;;11.88;6.28;;;17.90;99.90;;;;;;5115880;28;20026;-73
2022/08/19 05:31:22;;;;;;;18.70;7.38;;;17.90;99.90;;;;;;5117464;28;20016;-73
2022/08/19 05:33:49;;;;;;;10.55;6.03;;;17.90;99.90;;;;;;5112244;28;20391;-73
2022/08/19 05:36:15;;;;;;;18.98;7.50;;;17.90;99.90;;;;;;5113313;28;20019;-72
2022/08/19 05:38:41;;;;;;;10.93;6.45;;;17.90;99.90;;;;;;5117461;28;20430;-73
2022/08/19 05:41:11;;;;;;;8.15;5.97;;;17.90;99.90;;;;;;5115477;28;20020;-72
2022/08/19 05:43:37;;;;;;;13.55;6.53;;;17.90;99.90;;;;;;5103502;28;20559;-73
2022/08/19 05:46:06;;;;;;;12.07;6.53;;;17.90;99.90;;;;;;5112426;28;20016;-73
2022/08/19 05:48:34;;;;;;;11.15;5.70;;;17.90;99.90;;;;;;5115706;28;20050;-73
2022/08/19 05:51:05;;;;;;;13.88;7.25;;;17.80;99.90;;;;;;5115888;28;20016;-73
2022/08/19 05:53:32;;;;;;;14.75;6.80;;;17.90;99.90;;;;;;5124286;28;20031;-73
2022/08/19 05:56:02;;;;;;;10.00;6.10;;;17.90;99.90;;;;;;5114015;28;20027;-73
2022/08/19 05:58:28;;;;;;;22.30;6.90;;;17.90;99.90;;;;;;5106886;28;20034;-73
2022/08/19 06:00:54;;;;;;;12.75;6.13;;;17.90;99.90;;;;;;5117161;28;20028;-73
2022/08/19 06:03:20;;;;;;;12.13;6.50;;;17.90;99.90;;;;;;5116799;28;20116;-73
2022/08/19 06:05:46;;;;;;;12.90;6.65;;;18.00;99.90;;;;;;5108362;28;20023;-73
2022/08/19 06:08:12;;;;;;;11.38;6.50;;;18.00;99.90;;;;;;5116873;28;20038;-73
2022/08/19 06:10:38;;;;;;;19.92;6.88;;;18.20;99.90;;;;;;5106506;28;20023;-72
2022/08/19 06:13:05;;;;;;;11.15;6.18;;;18.20;99.90;;;;;;5114410;28;20407;-73
2022/08/19 06:15:31;;;;;;;15.75;6.55;;;18.10;99.90;;;;;;5112752;28;20020;-73
2022/08/19 06:17:57;;;;;;;17.15;6.25;;;18.10;99.90;;;;;;5116052;28;20024;-72
2022/08/19 06:20:23;;;;;;;17.40;6.45;;;18.10;99.90;;;;;;5116802;28;20019;-74
2022/08/19 06:22:52;;;;;;;13.02;6.35;;;18.20;99.90;;;;;;5115459;28;20028;-73
2022/08/19 06:25:18;;;;;;;14.45;5.97;;;18.20;99.90;;;;;;5116982;28;20045;-73
2022/08/19 06:27:44;;;;;;;13.75;5.82;;;18.20;99.90;;;;;;5115845;28;20043;-72
2022/08/19 06:30:13;;;;;;;11.00;5.60;;;18.20;99.90;;;;;;5116902;28;20047;-73
2022/08/19 06:32:39;;;;;;;14.93;6.82;;;18.20;99.90;;;;;;5111242;28;20027;-73
2022/08/19 06:35:06;;;;;;;14.07;6.07;;;18.20;99.90;;;;;;5116766;28;20030;-73
2022/08/19 06:37:35;;;;;;;15.38;5.28;;;18.20;99.90;;;;;;5109915;28;20027;-73
2022/08/19 06:40:03;;;;;;;10.70;4.60;;;18.30;99.90;;;;;;5115916;28;20059;-73
2022/08/19 06:42:30;;;;;;;14.73;6.55;;;18.40;99.90;;;;;;5115373;28;20496;-73
2022/08/19 06:44:57;;;;;;;13.13;6.22;;;18.40;99.90;;;;;;5115204;28;20020;-73
2022/08/19 06:47:23;;;;;;;11.82;5.80;;;18.40;99.90;;;;;;5115359;28;20028;-74
2022/08/19 06:49:49;;;;;;;10.35;4.90;;;18.40;99.90;;;;;;5115470;28;20510;-74
2022/08/19 06:52:15;;;;;;;11.70;5.47;;;18.40;99.90;;;;;;5117187;28;20050;-73
2022/08/19 06:54:42;;;;;;;12.23;5.35;;;18.40;99.90;;;;;;5116683;28;20032;-73
2022/08/19 06:57:13;;;;;;;13.10;5.45;;;18.50;99.90;;;;;;5113896;28;20055;-75
2022/08/19 06:59:39;;;;;;;13.48;5.63;;;18.50;99.90;;;;;;5114698;28;20022;-75
2022/08/19 07:02:06;;;;;;;8.20;4.78;;;18.60;99.90;;;;;;5114555;28;20421;-75
2022/08/19 07:04:33;;;;;;;8.70;4.85;;;18.70;99.90;;;;;;5119096;28;20020;-75
2022/08/19 07:07:05;;;;;;;12.63;5.00;;;18.90;99.90;;;;;;5120264;28;20016;-77
2022/08/19 07:09:31;;;;;;;12.38;5.00;;;18.80;99.90;;;;;;5118530;28;20028;-75
2022/08/19 07:11:57;;;;;;;15.30;5.10;;;18.80;99.90;;;;;;5120592;28;20020;-75
2022/08/19 07:14:29;;;;;;;13.77;5.18;;;18.80;99.90;;;;;;5119271;28;20024;-76
2022/08/19 07:16:59;;;;;;;10.80;5.90;;;18.90;99.90;;;;;;5108862;28;20027;-76
2022/08/19 07:19:27;;;;;;;16.40;5.55;;;19.00;99.90;;;;;;5128606;27;20031;-76
2022/08/19 07:21:56;;;;;;;11.73;5.38;;;19.20;99.90;;;;;;5118215;28;20399;-76
2022/08/19 07:24:26;;;;;;;13.57;4.93;;;19.30;99.90;;;;;;5118458;28;20077;-76
2022/08/19 07:26:55;;;;;;;14.32;5.78;;;19.50;99.90;;;;;;5118087;28;20067;-74
2022/08/19 07:29:24;;;;;;;6.82;4.68;;;19.70;99.90;;;;;;5119572;28;20016;-77
2022/08/19 07:31:51;;;;;;;10.18;5.10;;;19.70;99.90;;;;;;5119641;28;20483;-77
2022/08/19 07:34:18;;;;;;;14.50;5.70;;;19.70;99.90;;;;;;5117739;28;20028;-75
2022/08/19 07:36:45;;;;;;;16.63;5.40;;;19.60;99.90;;;;;;5112613;28;20047;-76
2022/08/19 07:39:20;;;;;;;12.15;4.32;;;19.50;99.90;;;;;;5112380;28;20110;-77
2022/08/19 07:41:46;;;;;;;8.35;4.75;;;19.60;99.90;;;;;;5114807;28;20383;-78
2022/08/19 07:44:13;;;;;;;10.60;4.68;;;19.60;99.90;;;;;;5118001;28;20031;-76
2022/08/19 07:46:41;;;;;;;10.65;4.57;;;19.60;99.90;;;;;;5117313;28;20098;-75
2022/08/19 07:49:18;;;;;;;12.75;5.75;;;19.60;99.90;;;;;;5119097;28;20034;-74
2022/08/19 07:51:49;;;;;;;10.88;4.80;;;19.70;99.90;;;;;;5119438;28;20042;-74
2022/08/19 07:54:16;;;;;;;8.60;4.80;;;19.60;99.90;;;;;;5119069;27;20027;-75
2022/08/19 07:56:42;;;;;;;12.30;4.70;;;19.60;99.90;;;;;;5118137;28;20053;-75
2022/08/19 07:59:21;;;;;;;;;;;;;;;;;;;;;
2022/08/19 08:01:49;;;;;;;8.73;4.28;;;19.60;99.90;;;;;;5118728;28;20024;-74
2022/08/19 08:09:48;;;;;;;26.45;6.25;;;19.50;99.90;;;;;;5116619;28;20053;-76
2022/08/19 08:12:20;;;;;;;8.82;4.03;;;19.70;99.90;;;;;;5110433;28;20435;-75
2022/08/19 08:14:52;;;;;;;11.77;4.38;;;19.70;99.90;;;;;;5117043;28;20035;-75
2022/08/19 08:17:20;;;;;;;6.32;4.30;;;19.70;99.90;;;;;;5117307;28;20055;-74
2022/08/19 08:19:50;;;;;;;10.02;4.07;;;19.80;99.90;;;;;;5112562;28;20038;-76
2022/08/19 08:25:23;;;;;;;8.73;4.05;;;20.10;99.90;;;;;;5118311;28;20059;-74
2022/08/19 08:27:49;;;;;;;11.27;4.63;;;20.10;99.90;;;;;;5110280;28;20035;-77
2022/08/19 08:30:23;;;;;;;8.68;4.07;;;20.20;99.90;;;;;;5116833;28;20027;-74
2022/08/19 08:32:50;;;;;;;9.00;4.70;;;20.30;99.90;;;;;;5110967;28;20510;-76
2022/08/19 08:35:21;;;;;;;14.38;4.65;;;20.50;99.90;;;;;;5100047;28;20051;-76
2022/08/19 08:37:49;;;;;;;11.30;4.38;;;20.50;99.90;;;;;;5118201;28;20030;-75
2022/08/19 08:40:45;;;;;;;7.30;4.28;;;20.50;99.90;;;;;;5116658;28;20031;-77
2022/08/19 08:43:34;;;;;;;7.93;3.92;;;20.40;99.90;;;;;;5110212;28;20034;-73
2022/08/19 08:46:05;;;;;;;6.80;4.15;;;20.40;99.90;;;;;;5112536;28;20027;-75
2022/08/19 08:48:38;;;;;;;11.15;3.67;;;20.30;99.90;;;;;;5110589;28;20073;-74
2022/08/19 08:51:13;;;;;;;9.75;3.95;;;20.30;99.90;;;;;;5105286;28;20023;-74
2022/08/19 08:53:41;;;;;;;7.72;3.85;;;20.40;99.90;;;;;;5110631;28;20073;-75
2022/08/19 08:56:12;;;;;;;8.25;4.22;;;20.50;99.90;;;;;;5115854;28;20035;-74
2022/08/19 08:58:58;;;;;;;9.57;3.97;;;20.60;99.90;;;;;;5116096;28;20055;-73
2022/08/19 09:01:24;;;;;;;8.57;4.40;;;20.60;99.90;;;;;;5117763;28;20364;-74
2022/08/19 09:03:50;;;;;;;9.88;4.60;;;20.60;99.90;;;;;;5118011;28;20020;-76
2022/08/19 09:06:24;;;;;;;11.70;4.35;;;20.60;99.90;;;;;;5111383;28;20103;-73
2022/08/19 09:09:04;;;;;;;10.23;4.32;;;20.60;99.90;;;;;;5113333;28;20019;-74
2022/08/19 09:11:47;;;;;;;9.52;4.75;;;20.80;99.90;;;;;;5108534;28;20020;-73
2022/08/19 09:14:37;;;;;;;11.88;4.00;;;21.00;99.90;;;;;;5117754;28;20019;-74
2022/08/19 09:17:07;;;;;;;;;;;21.20;99.90;;;;;;5102882;28;20415;-74
2022/08/19 09:19:35;;;;;;;5.90;4.00;;;21.30;99.90;;;;;;5117470;28;19967;-75
2022/08/19 09:22:01;;;;;;;10.13;4.10;;;21.60;99.90;;;;;;5116686;28;20024;-73
2022/08/19 09:24:27;;;;;;;7.07;4.40;;;21.80;99.90;;;;;;5115529;28;20020;-75
2022/08/19 09:26:53;;;;;;;7.47;4.00;;;21.80;99.90;;;;;;5104938;28;20414;-73
2022/08/19 09:29:20;;;;;;;6.78;4.35;;;21.70;99.90;;;;;;5117834;28;20050;-76
2022/08/19 09:31:46;;;;;;;11.50;4.28;;;21.60;99.90;;;;;;5117177;28;20019;-75
2022/08/19 09:34:12;;;;;;;6.38;3.75;;;21.50;99.90;;;;;;5117463;28;20495;-77
2022/08/19 09:36:38;;;;;;;9.52;4.35;;;21.40;99.90;;;;;;5116864;28;20026;-75
2022/08/19 09:39:05;;;;;;;13.05;4.45;;;21.30;99.90;;;;;;5117377;28;20106;-74
2022/08/19 09:41:31;;;;;;;7.65;3.92;;;21.20;99.90;;;;;;5117078;28;20032;-75
2022/08/19 09:43:58;;;;;;;6.32;3.58;;;21.20;99.90;;;;;;5109552;28;20070;-75
2022/08/19 09:46:27;;;;;;;5.03;3.70;;;21.20;99.90;;;;;;5113539;28;20103;-75
2022/08/19 09:48:54;;;;;;;15.68;5.60;;;21.30;99.90;;;;;;5107844;28;20087;-75
2022/08/19 09:51:26;;;;;;;9.27;4.00;;;21.40;99.90;;;;;;5103813;28;20066;-78
2022/08/19 09:53:56;;;;;;;8.50;4.22;;;21.50;99.90;;;;;;5116045;28;20020;-75
2022/08/19 09:56:22;;;;;;;16.52;4.70;;;21.60;99.90;;;;;;5116743;28;20016;-73
2022/08/19 09:58:48;;;;;;;7.57;3.92;;;21.60;99.90;;;;;;5116448;28;20028;-76
2022/08/19 10:01:21;;;;;;;9.55;4.63;;;21.80;99.90;;;;;;5115557;28;20047;-74
2022/08/19 10:04:07;;;;;;;10.77;4.18;;;21.80;99.90;;;;;;5116973;28;20030;-76
2022/08/19 10:06:40;;;;;;;16.42;4.53;;;21.80;99.90;;;;;;5106060;28;20024;-74
2022/08/19 10:09:10;;;;;;;8.77;3.70;;;21.90;99.90;;;;;;5110535;28;20049;-73
2022/08/19 10:11:56;;;;;;;6.30;3.83;;;22.00;99.90;;;;;;5117052;28;20459;-74
2022/08/19 10:14:23;;;;;;;8.63;4.40;;;22.20;99.90;;;;;;5116993;28;20024;-75
2022/08/19 10:16:49;;;;;;;7.88;3.88;;;22.30;99.90;;;;;;5115080;28;20043;-75
2022/08/19 10:19:14;;;;;;;11.75;4.68;;;22.30;99.90;;;;;;5105797;28;20016;-74
2022/08/19 10:21:40;;;;;;;7.05;3.88;;;22.20;99.90;;;;;;5115448;28;20019;-74
2022/08/19 10:24:06;;;;;;;10.18;4.47;;;22.30;99.90;;;;;;5116155;28;20535;-73
2022/08/19 10:27:03;;;;;;;6.72;3.63;;;22.30;99.90;;;;;;5115194;28;20044;-74
2022/08/19 10:29:30;;;;;;;9.95;4.38;;;22.50;99.90;;;;;;5117249;28;20024;-74
2022/08/19 10:31:57;;;;;;;10.95;3.35;;;22.30;99.90;;;;;;5115567;28;20020;-75
2022/08/19 10:34:23;;;;;;;8.57;4.35;;;22.30;99.90;;;;;;5113820;28;20053;-76
2022/08/19 10:37:06;;;;;;;8.93;3.70;;;22.40;99.90;;;;;;5111128;28;20381;-77
2022/08/19 10:39:34;;;;;;;8.43;3.70;;;22.60;99.90;;;;;;5119130;28;20032;-75
2022/08/19 10:42:27;;;;;;;8.85;3.92;;;22.60;99.90;;;;;;5103021;28;20046;-78
2022/08/19 10:44:53;;;;;;;8.23;4.93;;;22.60;99.90;;;;;;5105577;28;20015;-76
2022/08/19 10:47:18;;;;;;;5.40;3.90;;;22.60;99.90;;;;;;5116154;28;20026;-75
2022/08/19 10:52:47;;;;;;;7.65;4.47;;;22.70;99.90;;;;;;5118178;28;20077;-74
2022/08/19 10:57:57;;;;;;;6.32;4.32;;;22.70;99.90;;;;;;5120594;28;20517;-76
2022/08/19 11:00:24;;;;;;;8.75;4.57;;;22.70;99.90;;;;;;5118522;28;20028;-78
2022/08/19 11:02:51;;;;;;;7.95;4.13;;;22.70;99.90;;;;;;5120253;28;20531;-81
2022/08/19 11:05:31;;;;;;;9.38;4.32;;;22.70;99.90;;;;;;5117529;28;20016;-79
2022/08/19 11:08:17;;;;;;;6.07;3.65;;;23.00;99.90;;;;;;5118863;28;20027;-79
2022/08/19 11:10:45;;;;;;;6.28;3.60;;;23.10;99.90;;;;;;5117566;28;20019;-76
2022/08/19 11:13:11;;;;;;;6.75;4.03;;;23.50;99.90;;;;;;5112776;28;20027;-75
2022/08/19 11:15:43;;;;;;;6.85;3.90;;;23.80;99.90;;;;;;5110323;28;20047;-79
2022/08/19 11:18:09;;;;;;;8.30;3.78;;;23.70;99.90;;;;;;5111414;28;20372;-81
2022/08/19 11:20:46;;;;;;;7.40;4.15;;;23.30;99.90;;;;;;5120016;28;20096;-82
2022/08/19 11:23:12;;;;;;;10.90;4.70;;;23.30;99.90;;;;;;5114949;28;20035;-79
2022/08/19 11:25:47;;;;;;;8.65;3.88;;;23.20;99.90;;;;;;5118373;28;20043;-80
2022/08/19 11:28:13;;;;;;;5.43;3.72;;;23.20;99.90;;;;;;5118674;28;20020;-78
2022/08/19 11:30:39;;;;;;;7.72;4.18;;;23.40;99.90;;;;;;5119848;28;20045;-78
2022/08/19 11:33:05;;;;;;;7.63;3.78;;;23.40;99.90;;;;;;5118361;28;20024;-78
2022/08/19 11:35:36;;;;;;;8.55;3.03;;;23.70;99.90;;;;;;5118121;28;20019;-81
2022/08/19 11:38:05;;;;;;;8.05;4.20;;;24.00;99.90;;;;;;5110342;28;20032;-79
2022/08/19 11:40:30;;;;;;;11.93;4.55;;;24.20;99.90;;;;;;5118553;28;20053;-78
2022/08/19 11:42:58;;;;;;;6.13;3.30;;;24.10;99.90;;;;;;5117620;28;20419;-80
2022/08/19 11:45:46;;;;;;;6.82;2.97;;;24.10;99.90;;;;;;5117571;28;20023;-81
2022/08/19 11:48:14;;;;;;;6.05;3.40;;;23.80;99.90;;;;;;5118126;28;20387;-79
2022/08/19 11:50:46;;;;;;;7.35;3.50;;;23.90;99.90;;;;;;5118063;28;20054;-78
2022/08/19 11:53:12;;;;;;;5.40;3.90;;;24.10;99.90;;;;;;5127322;27;20023;-78
2022/08/19 11:55:44;;;;;;;8.00;3.33;;;24.40;99.90;;;;;;5117976;28;20020;-82
2022/08/19 11:58:14;;;;;;;4.40;3.10;;;24.60;99.90;;;;;;5117844;28;20091;-82
2022/08/19 12:00:40;;;;;;;5.65;3.67;;;24.60;99.90;;;;;;5115390;28;20035;-79
2022/08/19 12:03:10;;;;;;;7.05;3.25;;;24.70;99.90;;;;;;5116779;28;20553;-79
2022/08/19 12:05:38;;;;;;;5.88;3.38;;;24.80;99.90;;;;;;5117009;28;20564;-80
2022/08/19 12:08:04;;;;;;;7.20;3.28;;;24.80;99.90;;;;;;5101514;28;20023;-78
2022/08/19 12:10:30;;;;;;;11.45;3.17;;;25.10;99.90;;;;;;5103606;28;20012;-79
2022/08/19 12:12:56;;;;;;;4.90;3.13;;;25.20;99.90;;;;;;5117846;28;20129;-79
2022/08/19 12:15:58;;;;;;;;;;;;;;;;;;;;;
2022/08/19 12:18:35;;;;;;;7.47;4.15;;;25.20;99.90;;;;;;5109139;28;20043;-79
2022/08/19 12:21:01;;;;;;;4.63;2.58;;;25.10;99.90;;;;;;5114840;28;20023;-80
2022/08/19 12:23:27;;;;;;;7.40;3.88;;;25.30;99.90;;;;;;5118436;28;20038;-78
2022/08/19 12:25:54;;;;;;;9.75;3.60;;;25.40;99.90;;;;;;5116949;28;20499;-77
2022/08/19 12:28:21;;;;;;;6.03;3.45;;;25.50;99.90;;;;;;5116888;28;20135;-75
2022/08/19 12:30:50;;;;;;;6.97;3.15;;;25.20;99.90;;;;;;5118796;28;20059;-77
2022/08/19 12:33:18;;;;;;;5.97;3.00;;;25.20;99.90;;;;;;5118333;28;20031;-77
2022/08/19 12:35:46;;;;;;;6.15;2.80;;;25.50;99.90;;;;;;5118612;28;20024;-79
2022/08/19 12:38:15;;;;;;;5.78;3.00;;;25.90;99.90;;;;;;5113324;28;20065;-78
2022/08/19 12:41:06;;;;;;;8.48;3.45;;;26.00;99.90;;;;;;5110183;28;20020;-77
2022/08/19 12:43:33;;;;;;;11.00;2.75;;;25.80;99.90;;;;;;5111484;28;20107;-75
2022/08/19 12:46:18;;;;;;;5.85;3.20;;;25.80;99.90;;;;;;5108853;28;20108;-78
2022/08/19 12:48:45;;;;;;;5.70;3.45;;;25.80;99.90;;;;;;5118340;28;20024;-77
2022/08/19 12:51:16;;;;;;;4.15;2.63;;;25.70;99.90;;;;;;5106754;28;20472;-76
2022/08/19 12:53:57;;;;;;;;;;;;;;;;;;;;;
2022/08/19 12:56:23;;;;;;;5.55;3.10;;;26.10;99.90;;;;;;5108186;28;20114;-77
2022/08/19 12:58:51;;;;;;;6.32;3.28;;;26.30;99.90;;;;;;5107883;28;20063;-77
2022/08/19 13:01:18;;;;;;;6.82;2.92;;;26.40;99.90;;;;;;5118075;28;20069;-76
2022/08/19 13:03:47;;;;;;;4.88;3.00;;;26.30;99.90;;;;;;5115487;28;20550;-76
2022/08/19 13:06:14;;;;;;;7.53;2.70;;;26.00;99.50;;;;;;5116290;28;20065;-77
2022/08/19 13:08:51;;;;;;;4.15;2.83;;;25.80;99.90;;;;;;5117828;28;20407;-77
2022/08/19 13:11:26;;;;;;;6.18;2.75;;;25.50;99.90;;;;;;5109225;28;20398;-76
2022/08/19 13:13:56;;;;;;;5.90;3.28;;;25.60;99.90;;;;;;5114394;28;20095;-78
2022/08/19 13:16:22;;;;;;;5.05;2.92;;;25.80;99.80;;;;;;5114240;28;20094;-76
2022/08/19 13:18:51;;;;;;;8.35;3.05;;;26.10;99.90;;;;;;5116733;28;20073;-76
2022/08/19 13:21:19;;;;;;;5.07;2.45;;;26.40;98.70;;;;;;5116649;28;20027;-76